Cumminsville, Kentucky
Current Conditions -  °F | °C
As of 1:55 AM on Tuesday 21 Oct 2014 (Local Time) from KFGX Reporting Station
Clear Clear  
Wind Chill: 50°   Ceiling: Unl
Heat Index: 50°   Visibility: 10mi
Dew Point: 48°   Wind: 3mph
Humidity: 94%   Direction: 250°WSW
Pressure: 29.93"   Gusts: NA
Location:  38.6516°N, 84.0942°W
Report Text: KFGX 210555Z AUTO 25003KT 10SM CLR 10/09 A2993 RMK AO2 T01010091 10126 20101 401600052
Loading
Personal Weather Stations






























Interactive Weather Map
Tropical Storm Tracking
New forecast layout! Learn more

10-Day Weather Forecast

Advertisements
Track Severe Weather on mobile